createdAt,value
2023-03-18T00:00:40.787Z,8.14
2023-03-18T00:03:07.097Z,8.09
2023-03-18T00:05:34.486Z,8.02
2023-03-18T00:08:00.785Z,8.00
2023-03-18T00:10:27.092Z,7.92
2023-03-18T00:12:56.547Z,7.96
2023-03-18T00:15:23.090Z,7.95
2023-03-18T00:17:49.424Z,7.88
2023-03-18T00:20:17.130Z,7.91
2023-03-18T00:22:43.650Z,7.86
2023-03-18T00:25:09.964Z,7.81
2023-03-18T00:27:36.297Z,7.85
2023-03-18T00:30:03.520Z,7.82
2023-03-18T00:32:29.853Z,7.80
2023-03-18T00:34:57.016Z,7.78
2023-03-18T00:37:33.627Z,7.86
2023-03-18T00:40:04.837Z,7.79
2023-03-18T00:42:37.261Z,7.76
2023-03-18T00:45:04.538Z,7.73
2023-03-18T00:47:30.875Z,7.67
2023-03-18T00:49:57.290Z,7.67
2023-03-18T00:52:23.623Z,7.79
2023-03-18T00:54:50.313Z,7.69
2023-03-18T00:57:16.624Z,7.68
2023-03-18T00:59:42.941Z,7.74
2023-03-18T01:02:09.290Z,7.80
2023-03-18T01:04:35.797Z,7.76
2023-03-18T01:07:02.791Z,7.78
2023-03-18T01:09:29.102Z,7.69
2023-03-18T01:11:55.461Z,7.73
2023-03-18T01:14:21.780Z,7.73
2023-03-18T01:16:48.224Z,7.78
2023-03-18T01:19:14.559Z,7.74
2023-03-18T01:21:40.890Z,7.72
2023-03-18T01:24:07.213Z,7.66
2023-03-18T01:26:33.601Z,7.72
2023-03-18T01:28:59.952Z,7.59
2023-03-18T01:31:26.291Z,7.61
2023-03-18T01:33:52.672Z,7.59
2023-03-18T01:36:18.975Z,7.62
2023-03-18T01:38:45.299Z,7.56
2023-03-18T01:41:11.592Z,7.51
2023-03-18T01:43:38.860Z,7.51
2023-03-18T01:46:05.382Z,7.48
2023-03-18T01:48:31.756Z,7.52
2023-03-18T01:50:59.440Z,7.49
2023-03-18T01:53:25.901Z,7.41
2023-03-18T01:55:52.350Z,7.44
2023-03-18T01:58:18.715Z,7.39
2023-03-18T02:00:46.079Z,7.45
2023-03-18T02:03:12.500Z,7.48
2023-03-18T02:05:38.829Z,7.48
2023-03-18T02:08:05.182Z,7.50
2023-03-18T02:10:32.157Z,7.42
2023-03-18T02:12:58.728Z,7.39
2023-03-18T02:15:25.065Z,7.46
2023-03-18T02:17:51.703Z,7.51
2023-03-18T02:20:18.916Z,7.38
2023-03-18T02:22:45.242Z,7.36
2023-03-18T02:25:12.163Z,7.38
2023-03-18T02:27:38.466Z,7.36
2023-03-18T02:30:04.823Z,7.33
2023-03-18T02:32:31.328Z,7.34
2023-03-18T02:34:57.666Z,7.32
2023-03-18T02:37:24.002Z,7.28
2023-03-18T02:39:50.306Z,7.34
2023-03-18T02:42:18.389Z,7.35
2023-03-18T02:44:44.716Z,7.28
2023-03-18T02:47:11.693Z,7.31
2023-03-18T02:49:38.056Z,7.33
2023-03-18T02:52:04.401Z,7.37
2023-03-18T02:54:30.728Z,7.20
2023-03-18T02:56:57.123Z,7.18
2023-03-18T02:59:23.446Z,7.30
2023-03-18T03:01:49.851Z,7.24
2023-03-18T03:04:16.288Z,7.29
2023-03-18T03:06:42.884Z,7.31
2023-03-18T03:09:09.225Z,7.17
2023-03-18T03:11:35.649Z,7.23
2023-03-18T03:14:02.067Z,7.28
2023-03-18T03:16:28.469Z,7.26
2023-03-18T03:18:54.796Z,7.24
2023-03-18T03:21:21.128Z,7.22
2023-03-18T03:23:47.867Z,7.21
2023-03-18T03:26:14.467Z,7.17
2023-03-18T03:28:40.773Z,7.23
2023-03-18T03:31:07.301Z,7.14
2023-03-18T03:33:33.657Z,7.06
2023-03-18T03:36:00.086Z,7.10
2023-03-18T03:38:26.416Z,7.03
2023-03-18T03:40:53.991Z,7.09
2023-03-18T03:43:20.319Z,7.09
2023-03-18T03:45:46.644Z,7.08
2023-03-18T03:48:13.100Z,7.00
2023-03-18T03:50:39.426Z,7.03
2023-03-18T03:53:06.843Z,7.05
2023-03-18T03:55:33.854Z,7.03
2023-03-18T03:58:00.160Z,7.08
2023-03-18T04:00:26.731Z,7.01
2023-03-18T04:02:53.085Z,7.02
2023-03-18T04:05:19.492Z,6.98
2023-03-18T04:07:46.132Z,6.86
2023-03-18T04:10:13.594Z,6.93
2023-03-18T04:12:40.026Z,6.89
2023-03-18T04:15:06.813Z,6.89
2023-03-18T04:17:33.156Z,6.95
2023-03-18T04:19:59.533Z,6.97
2023-03-18T04:22:25.864Z,6.95
2023-03-18T04:24:52.449Z,6.73
2023-03-18T04:27:18.761Z,6.79
2023-03-18T04:29:45.075Z,6.79
2023-03-18T04:32:11.385Z,6.69
2023-03-18T04:34:38.614Z,6.66
2023-03-18T04:37:05.026Z,6.76
2023-03-18T04:39:31.342Z,6.67
2023-03-18T04:41:58.470Z,6.75
2023-03-18T04:44:25.004Z,6.67
2023-03-18T04:46:51.359Z,6.72
2023-03-18T04:49:18.053Z,6.63
2023-03-18T04:51:44.383Z,6.62
2023-03-18T04:54:12.461Z,6.63
2023-03-18T04:56:39.703Z,6.65
2023-03-18T04:59:06.005Z,6.59
2023-03-18T05:01:32.348Z,6.58
2023-03-18T05:03:58.755Z,6.58
2023-03-18T05:06:25.349Z,6.61
2023-03-18T05:08:52.149Z,6.63
2023-03-18T05:11:18.889Z,6.56
2023-03-18T05:13:45.200Z,6.48
2023-03-18T05:16:11.555Z,6.49
2023-03-18T05:18:38.159Z,6.42
2023-03-18T05:21:05.302Z,6.40
2023-03-18T05:23:31.664Z,6.38
2023-03-18T05:25:58.276Z,6.46
2023-03-18T05:28:24.590Z,6.50
2023-03-18T05:30:51.217Z,6.38
2023-03-18T05:33:17.566Z,6.37
2023-03-18T05:35:43.936Z,6.48
2023-03-18T05:38:10.367Z,6.40
2023-03-18T05:40:36.746Z,6.44
2023-03-18T05:43:03.111Z,6.38
2023-03-18T05:45:29.421Z,6.37
2023-03-18T05:47:55.775Z,6.32
2023-03-18T05:50:22.809Z,6.27
2023-03-18T05:52:49.537Z,6.37
2023-03-18T05:55:16.129Z,6.31
2023-03-18T05:57:42.447Z,6.33
2023-03-18T06:00:08.780Z,6.34
2023-03-18T06:02:35.147Z,6.22
2023-03-18T06:05:01.632Z,6.32
2023-03-18T06:07:28.117Z,6.32
2023-03-18T06:09:54.433Z,6.43
2023-03-18T06:12:23.145Z,6.47
2023-03-18T06:14:49.461Z,6.53
2023-03-18T06:17:16.603Z,6.55
2023-03-18T06:19:42.919Z,6.47
2023-03-18T06:22:10.025Z,6.48
2023-03-18T06:24:36.426Z,6.48
2023-03-18T06:27:02.794Z,6.51
2023-03-18T06:29:29.970Z,6.66
2023-03-18T06:31:56.325Z,6.56
2023-03-18T06:34:22.644Z,6.64
2023-03-18T06:36:48.941Z,6.77
2023-03-18T06:39:15.270Z,6.76
2023-03-18T06:41:41.647Z,6.86
2023-03-18T06:44:07.978Z,6.95
2023-03-18T06:46:34.614Z,7.06
2023-03-18T06:49:01.585Z,6.97
2023-03-18T06:51:27.911Z,7.00
2023-03-18T06:53:54.710Z,7.07
2023-03-18T06:56:21.037Z,6.97
2023-03-18T06:58:47.351Z,6.99
2023-03-18T07:01:14.112Z,7.03
2023-03-18T07:03:40.483Z,7.11
2023-03-18T07:06:06.854Z,7.11
2023-03-18T07:08:33.201Z,7.28
2023-03-18T07:10:59.620Z,7.29
2023-03-18T07:13:25.931Z,7.50
2023-03-18T07:15:52.397Z,7.56
2023-03-18T07:18:18.765Z,7.68
2023-03-18T07:20:45.092Z,7.88
2023-03-18T07:23:11.471Z,7.80
2023-03-18T07:25:37.776Z,8.11
2023-03-18T07:28:05.832Z,8.43
2023-03-18T07:30:33.034Z,8.66
2023-03-18T07:32:59.432Z,8.78
2023-03-18T07:35:25.796Z,8.64
2023-03-18T07:37:52.380Z,9.11
2023-03-18T07:40:18.757Z,9.07
2023-03-18T07:42:45.080Z,9.43
2023-03-18T07:45:11.460Z,9.49
2023-03-18T07:47:37.907Z,9.78
2023-03-18T07:50:04.443Z,9.60
2023-03-18T07:52:31.486Z,10.08
2023-03-18T07:54:57.805Z,9.81
2023-03-18T07:57:24.287Z,9.68
2023-03-18T07:59:50.681Z,9.67
2023-03-18T08:02:17.063Z,9.58
2023-03-18T08:04:44.238Z,9.58
2023-03-18T08:07:10.630Z,9.39
2023-03-18T08:09:36.957Z,9.60
2023-03-18T08:12:03.289Z,9.60
2023-03-18T08:14:29.613Z,9.81
2023-03-18T08:16:55.933Z,9.64
2023-03-18T08:19:22.285Z,9.83
2023-03-18T08:21:49.178Z,10.30
2023-03-18T08:24:15.873Z,10.33
2023-03-18T08:26:42.209Z,10.58
2023-03-18T08:29:08.535Z,10.63
2023-03-18T08:31:34.880Z,10.39
2023-03-18T08:34:01.528Z,10.66
2023-03-18T08:36:28.799Z,10.72
2023-03-18T08:38:55.333Z,10.99
2023-03-18T08:41:22.326Z,11.09
2023-03-18T08:43:48.705Z,11.09
2023-03-18T08:46:15.189Z,11.13
2023-03-18T08:48:41.934Z,11.05
2023-03-18T08:51:11.378Z,11.35
2023-03-18T08:53:37.708Z,11.33
2023-03-18T08:56:05.779Z,11.11
2023-03-18T08:58:32.108Z,11.37
2023-03-18T09:00:58.664Z,11.10
2023-03-18T09:03:25.049Z,11.41
2023-03-18T09:05:52.302Z,11.72
2023-03-18T09:08:18.607Z,12.00
2023-03-18T09:10:44.942Z,12.24
2023-03-18T09:13:11.251Z,12.36
2023-03-18T09:15:37.653Z,12.04
2023-03-18T09:18:11.772Z,12.37
2023-03-18T09:20:39.319Z,12.66
2023-03-18T09:23:05.663Z,12.46
2023-03-18T09:25:32.613Z,12.48
2023-03-18T09:27:59.073Z,12.24
2023-03-18T09:30:26.543Z,12.61
2023-03-18T09:32:53.059Z,13.02
2023-03-18T09:35:19.436Z,12.59
2023-03-18T09:37:45.855Z,12.97
2023-03-18T09:40:12.261Z,12.59
2023-03-18T09:42:38.649Z,12.75
2023-03-18T09:45:05.382Z,13.64
2023-03-18T09:47:32.945Z,13.05
2023-03-18T09:50:00.441Z,13.29
2023-03-18T09:52:27.310Z,13.36
2023-03-18T09:54:53.625Z,13.29
2023-03-18T09:57:19.957Z,13.62
2023-03-18T09:59:46.287Z,14.06
2023-03-18T10:02:13.164Z,13.52
2023-03-18T10:04:39.497Z,13.82
2023-03-18T10:07:05.804Z,13.67
2023-03-18T10:09:32.136Z,13.37
2023-03-18T10:11:58.462Z,13.55
2023-03-18T10:14:24.764Z,13.18
2023-03-18T10:16:51.190Z,13.80
2023-03-18T10:19:17.586Z,13.51
2023-03-18T10:21:44.064Z,13.57
2023-03-18T10:24:10.378Z,13.68
2023-03-18T10:26:36.909Z,14.05
2023-03-18T10:29:03.471Z,13.98
2023-03-18T10:31:30.647Z,14.10
2023-03-18T10:33:56.992Z,14.15
2023-03-18T10:36:23.675Z,14.68
2023-03-18T10:38:50.667Z,14.77
2023-03-18T10:41:17.518Z,14.54
2023-03-18T10:43:43.847Z,14.30
2023-03-18T10:46:10.230Z,14.24
2023-03-18T10:48:36.585Z,13.93
2023-03-18T10:51:02.933Z,14.06
2023-03-18T10:53:29.295Z,14.18
2023-03-18T10:55:57.543Z,14.44
2023-03-18T10:58:23.951Z,14.31
2023-03-18T11:00:51.354Z,14.29
2023-03-18T11:03:17.663Z,14.48
2023-03-18T11:05:43.980Z,14.63
2023-03-18T11:08:10.598Z,14.40
2023-03-18T11:10:37.146Z,14.25
2023-03-18T11:13:03.534Z,14.46
2023-03-18T11:15:29.849Z,14.49
2023-03-18T11:17:56.742Z,14.28
2023-03-18T11:20:24.670Z,14.25
2023-03-18T11:22:52.329Z,14.16
2023-03-18T11:25:18.679Z,14.50
2023-03-18T11:27:46.005Z,14.70
2023-03-18T11:30:16.648Z,14.49
2023-03-18T11:32:50.704Z,14.33
2023-03-18T11:35:17.411Z,14.37
2023-03-18T11:37:43.731Z,14.38
2023-03-18T11:40:10.133Z,14.69
2023-03-18T11:42:36.523Z,14.48
2023-03-18T11:45:02.874Z,14.72
2023-03-18T11:47:29.410Z,14.92
2023-03-18T11:49:56.032Z,14.71
2023-03-18T11:52:22.514Z,14.94
2023-03-18T11:54:49.289Z,14.73
2023-03-18T11:57:15.665Z,14.53
2023-03-18T11:59:42.033Z,14.44
2023-03-18T12:02:08.459Z,14.50
2023-03-18T12:04:35.976Z,14.41
2023-03-18T12:07:02.343Z,14.35
2023-03-18T12:09:30.443Z,14.74
2023-03-18T12:11:57.302Z,14.47
2023-03-18T12:14:25.955Z,14.60
2023-03-18T12:16:52.443Z,14.56
2023-03-18T12:19:18.807Z,14.55
2023-03-18T12:21:45.224Z,14.50
2023-03-18T12:24:11.692Z,14.19
2023-03-18T12:26:38.605Z,13.95
2023-03-18T12:29:04.914Z,14.22
2023-03-18T12:31:31.665Z,14.00
2023-03-18T12:33:58.093Z,14.52
2023-03-18T12:36:24.430Z,14.64
2023-03-18T12:38:50.748Z,14.44
2023-03-18T12:41:17.962Z,14.51
2023-03-18T12:43:44.493Z,14.70
2023-03-18T12:46:10.915Z,14.20
2023-03-18T12:48:44.010Z,14.42
2023-03-18T12:51:11.387Z,14.57
2023-03-18T12:53:38.478Z,14.29
2023-03-18T12:56:05.762Z,14.28
2023-03-18T12:58:32.127Z,14.31
2023-03-18T13:00:58.786Z,14.21
2023-03-18T13:03:26.302Z,14.14
2023-03-18T13:05:52.687Z,14.37
2023-03-18T13:08:19.011Z,14.25
2023-03-18T13:10:45.475Z,14.39
2023-03-18T13:13:11.796Z,14.31
2023-03-18T13:15:38.238Z,14.32
2023-03-18T13:18:05.932Z,14.52
2023-03-18T13:20:33.300Z,14.69
2023-03-18T13:22:59.924Z,14.71
2023-03-18T13:25:27.945Z,14.75
2023-03-18T13:27:54.274Z,14.54
2023-03-18T13:30:20.702Z,14.78
2023-03-18T13:32:47.936Z,14.82
2023-03-18T13:35:14.615Z,15.10
2023-03-18T13:37:43.140Z,14.85
2023-03-18T13:40:09.566Z,14.72
2023-03-18T13:42:36.217Z,14.75
2023-03-18T13:45:02.600Z,14.87
2023-03-18T13:47:28.955Z,14.81
2023-03-18T13:49:55.266Z,14.79
2023-03-18T13:52:22.338Z,14.81
2023-03-18T13:54:48.704Z,14.71
2023-03-18T13:57:15.024Z,15.06
2023-03-18T13:59:41.378Z,15.14
2023-03-18T14:02:07.707Z,14.99
2023-03-18T14:04:34.095Z,14.95
2023-03-18T14:07:00.636Z,15.09
2023-03-18T14:09:27.143Z,14.92
2023-03-18T14:11:53.554Z,15.04
2023-03-18T14:14:20.413Z,15.13
2023-03-18T14:16:47.468Z,14.76
2023-03-18T14:19:13.780Z,15.06
2023-03-18T14:21:40.111Z,14.70
2023-03-18T14:24:08.099Z,14.63
2023-03-18T14:26:34.592Z,14.56
2023-03-18T14:29:01.163Z,14.44
2023-03-18T14:31:27.552Z,14.67
2023-03-18T14:33:53.995Z,14.65
2023-03-18T14:36:20.409Z,14.57
2023-03-18T14:38:47.534Z,14.44
2023-03-18T14:41:14.215Z,14.59
2023-03-18T14:43:40.526Z,14.51
2023-03-18T14:46:09.923Z,14.47
2023-03-18T14:48:36.240Z,14.36
2023-03-18T14:51:02.636Z,14.33
2023-03-18T14:53:29.022Z,14.38
2023-03-18T14:55:57.332Z,14.28
2023-03-18T14:58:23.794Z,14.17
2023-03-18T15:00:50.157Z,14.17
2023-03-18T15:03:16.563Z,14.16
2023-03-18T15:05:42.965Z,14.12
2023-03-18T15:08:09.294Z,14.30
2023-03-18T15:10:35.882Z,14.33
2023-03-18T15:13:04.375Z,14.32
2023-03-18T15:15:31.469Z,14.28
2023-03-18T15:17:57.934Z,14.19
2023-03-18T15:20:24.332Z,14.12
2023-03-18T15:22:50.830Z,14.18
2023-03-18T15:25:17.227Z,14.15
2023-03-18T15:27:43.601Z,14.13
2023-03-18T15:30:11.951Z,14.16
2023-03-18T15:32:38.270Z,14.02
2023-03-18T15:35:04.596Z,14.08
2023-03-18T15:37:31.908Z,14.03
2023-03-18T15:39:59.076Z,14.03
2023-03-18T15:42:25.377Z,14.11
2023-03-18T15:44:51.794Z,13.94
2023-03-18T15:47:18.520Z,13.95
2023-03-18T15:49:44.965Z,13.91
2023-03-18T15:52:11.839Z,13.90
2023-03-18T15:54:38.171Z,13.80
2023-03-18T15:57:04.499Z,13.86
2023-03-18T15:59:31.465Z,13.87
2023-03-18T16:01:57.804Z,13.81
2023-03-18T16:04:24.455Z,13.58
2023-03-18T16:06:50.785Z,13.51
2023-03-18T16:09:17.351Z,13.40
2023-03-18T16:11:43.687Z,13.41
2023-03-18T16:14:10.178Z,13.28
2023-03-18T16:16:36.888Z,13.40
2023-03-18T16:19:03.477Z,13.38
2023-03-18T16:21:29.825Z,13.39
2023-03-18T16:23:56.203Z,13.47
2023-03-18T16:26:22.749Z,13.43
2023-03-18T16:28:49.350Z,13.26
2023-03-18T16:31:15.686Z,13.36
2023-03-18T16:33:42.268Z,13.23
2023-03-18T16:36:09.049Z,13.24
2023-03-18T16:38:35.544Z,13.20
2023-03-18T16:41:01.914Z,13.25
2023-03-18T16:43:28.628Z,13.20
2023-03-18T16:45:55.014Z,13.19
2023-03-18T16:48:21.501Z,13.01
2023-03-18T16:50:48.709Z,12.89
2023-03-18T16:53:17.543Z,12.79
2023-03-18T16:55:44.228Z,12.84
2023-03-18T16:58:10.867Z,12.70
2023-03-18T17:00:38.268Z,12.62
2023-03-18T17:03:04.635Z,12.50
2023-03-18T17:05:31.429Z,12.52
2023-03-18T17:07:57.893Z,12.46
2023-03-18T17:10:24.226Z,12.26
2023-03-18T17:12:50.546Z,12.38
2023-03-18T17:15:16.872Z,12.32
2023-03-18T17:17:43.197Z,12.23
2023-03-18T17:20:11.605Z,12.17
2023-03-18T17:22:37.940Z,12.19
2023-03-18T17:25:05.500Z,12.00
2023-03-18T17:27:31.834Z,11.97
2023-03-18T17:29:58.160Z,11.98
2023-03-18T17:32:24.503Z,11.75
2023-03-18T17:34:51.341Z,11.68
2023-03-18T17:37:17.723Z,11.65
2023-03-18T17:39:44.818Z,11.62
2023-03-18T17:42:11.134Z,11.55
2023-03-18T17:44:37.593Z,11.60
2023-03-18T17:47:03.908Z,11.50
2023-03-18T17:49:30.263Z,11.51
2023-03-18T17:51:56.600Z,11.44
2023-03-18T17:54:23.490Z,11.27
2023-03-18T17:56:49.875Z,11.37
2023-03-18T17:59:16.354Z,11.43
2023-03-18T18:01:42.708Z,11.33
2023-03-18T18:04:09.036Z,11.17
2023-03-18T18:06:36.203Z,11.17
2023-03-18T18:09:02.648Z,11.12
2023-03-18T18:11:28.960Z,11.16
2023-03-18T18:13:56.334Z,11.09
2023-03-18T18:16:23.023Z,11.13
2023-03-18T18:18:50.133Z,11.03
2023-03-18T18:21:16.633Z,11.00
2023-03-18T18:23:43.968Z,10.92
2023-03-18T18:26:10.267Z,10.89
2023-03-18T18:28:36.627Z,10.87
2023-03-18T18:31:03.189Z,10.79
2023-03-18T18:33:29.519Z,10.68
2023-03-18T18:35:56.421Z,10.72
2023-03-18T18:38:22.935Z,10.68
2023-03-18T18:40:54.826Z,10.58
2023-03-18T18:43:21.199Z,10.58
2023-03-18T18:45:47.555Z,10.59
2023-03-18T18:48:14.192Z,10.60
2023-03-18T18:50:40.516Z,10.43
2023-03-18T18:53:07.266Z,10.58
2023-03-18T18:55:34.731Z,10.49
2023-03-18T18:58:01.317Z,10.38
2023-03-18T19:00:28.699Z,10.46
2023-03-18T19:02:58.272Z,10.37
2023-03-18T19:05:24.657Z,10.33
2023-03-18T19:07:51.595Z,10.25
2023-03-18T19:10:17.914Z,10.22
2023-03-18T19:12:44.427Z,10.26
2023-03-18T19:15:11.391Z,10.21
2023-03-18T19:17:39.045Z,10.20
2023-03-18T19:20:05.589Z,10.17
2023-03-18T19:22:32.243Z,10.13
2023-03-18T19:24:58.809Z,10.07
2023-03-18T19:27:25.119Z,10.10
2023-03-18T19:29:51.439Z,10.14
2023-03-18T19:32:20.888Z,10.09
2023-03-18T19:34:47.258Z,10.11
2023-03-18T19:37:13.728Z,10.06
2023-03-18T19:39:40.054Z,10.09
2023-03-18T19:42:06.396Z,10.11
2023-03-18T19:44:32.765Z,10.04
2023-03-18T19:46:59.506Z,10.04
2023-03-18T19:49:25.864Z,10.06
2023-03-18T19:51:52.203Z,10.05
2023-03-18T19:54:18.932Z,10.06
2023-03-18T19:56:45.259Z,9.93
2023-03-18T19:59:11.653Z,10.00
2023-03-18T20:01:37.970Z,10.04
2023-03-18T20:04:04.312Z,9.95
2023-03-18T20:06:30.983Z,9.86
2023-03-18T20:08:57.299Z,9.90
2023-03-18T20:11:23.637Z,9.85
2023-03-18T20:13:49.988Z,9.82
2023-03-18T20:16:16.439Z,9.85
2023-03-18T20:18:42.858Z,9.72
2023-03-18T20:21:09.174Z,9.84
2023-03-18T20:23:36.445Z,9.81
2023-03-18T20:26:02.819Z,9.78
2023-03-18T20:28:29.933Z,9.88
2023-03-18T20:30:56.971Z,9.88
2023-03-18T20:33:26.807Z,9.87
2023-03-18T20:35:53.227Z,9.88
2023-03-18T20:38:19.666Z,9.88
2023-03-18T20:40:47.826Z,9.86
2023-03-18T20:43:15.164Z,9.90
2023-03-18T20:45:41.585Z,9.84
2023-03-18T20:48:08.967Z,9.86
2023-03-18T20:50:36.324Z,9.89
2023-03-18T20:53:03.474Z,9.83
2023-03-18T20:55:31.364Z,9.78
2023-03-18T20:57:58.011Z,9.78
2023-03-18T21:00:24.370Z,9.80
2023-03-18T21:02:50.895Z,9.83
2023-03-18T21:05:17.246Z,9.81
2023-03-18T21:07:43.662Z,9.81
2023-03-18T21:10:09.997Z,9.81
2023-03-18T21:12:36.324Z,9.79
2023-03-18T21:15:02.693Z,9.78
2023-03-18T21:17:29.061Z,9.74
2023-03-18T21:20:00.702Z,9.83
2023-03-18T21:22:33.387Z,9.81
2023-03-18T21:24:59.708Z,9.79
2023-03-18T21:27:26.940Z,9.78
2023-03-18T21:29:53.225Z,9.80
2023-03-18T21:32:19.530Z,9.68
2023-03-18T21:34:46.216Z,9.80
2023-03-18T21:37:12.568Z,9.73
2023-03-18T21:39:39.135Z,9.81
2023-03-18T21:42:05.940Z,9.78
2023-03-18T21:44:32.400Z,9.67
2023-03-18T21:46:58.722Z,9.82
2023-03-18T21:49:25.100Z,9.79
2023-03-18T21:51:51.415Z,9.82
2023-03-18T21:54:17.863Z,9.80
2023-03-18T21:56:44.278Z,9.78
2023-03-18T21:59:10.617Z,9.77
2023-03-18T22:01:36.986Z,9.82
2023-03-18T22:04:03.785Z,9.87
2023-03-18T22:06:30.229Z,9.83
2023-03-18T22:08:57.445Z,9.87
2023-03-18T22:11:23.857Z,9.86
2023-03-18T22:13:50.177Z,9.86
2023-03-18T22:16:16.564Z,9.83
2023-03-18T22:18:42.927Z,9.88
2023-03-18T22:21:09.245Z,9.78
2023-03-18T22:23:36.671Z,9.84
2023-03-18T22:26:03.815Z,9.86
2023-03-18T22:28:32.332Z,9.87
2023-03-18T22:31:00.333Z,9.89
2023-03-18T22:33:28.298Z,9.84
2023-03-18T22:35:54.730Z,9.85
2023-03-18T22:38:21.125Z,9.85
2023-03-18T22:40:47.444Z,9.81
2023-03-18T22:43:13.788Z,9.83
2023-03-18T22:45:40.851Z,9.85
2023-03-18T22:48:07.227Z,9.84
2023-03-18T22:50:33.568Z,9.76
2023-03-18T22:52:59.880Z,9.80
2023-03-18T22:55:26.206Z,9.79
2023-03-18T22:57:52.586Z,9.82
2023-03-18T23:00:19.120Z,9.74
2023-03-18T23:02:45.497Z,9.72
2023-03-18T23:05:11.824Z,9.75
2023-03-18T23:07:39.026Z,9.62
2023-03-18T23:10:05.329Z,9.63
2023-03-18T23:12:32.696Z,9.62
2023-03-18T23:14:59.023Z,9.60
2023-03-18T23:17:25.431Z,9.55
2023-03-18T23:19:51.754Z,9.54
2023-03-18T23:22:18.081Z,9.51
2023-03-18T23:24:44.523Z,9.48
2023-03-18T23:27:11.089Z,9.54
2023-03-18T23:29:37.513Z,9.49
2023-03-18T23:32:03.838Z,9.46
2023-03-18T23:34:30.449Z,9.47
2023-03-18T23:36:56.799Z,9.48
2023-03-18T23:39:23.140Z,9.27
2023-03-18T23:41:49.516Z,9.37
2023-03-18T23:44:15.913Z,9.36
2023-03-18T23:46:43.585Z,9.41
2023-03-18T23:49:09.883Z,9.35
2023-03-18T23:51:36.361Z,9.34
2023-03-18T23:54:02.663Z,9.34
2023-03-18T23:56:28.976Z,9.31
2023-03-18T23:58:55.483Z,9.38
